createdAt,value
2018-09-08T04:32:32.749Z,11.30
2018-09-08T04:35:00.897Z,11.30
2018-09-08T04:37:29.210Z,11.20
2018-09-08T04:39:57.352Z,11.10
2018-09-08T04:42:25.428Z,11.10
2018-09-08T04:44:53.508Z,11.10
2018-09-08T04:47:21.612Z,11.00
2018-09-08T04:49:49.690Z,11.00
2018-09-08T04:52:17.814Z,11.00
2018-09-08T04:54:45.880Z,11.00
2018-09-08T04:57:13.964Z,11.20
2018-09-08T04:59:42.060Z,11.20
2018-09-08T05:02:10.149Z,11.20
2018-09-08T05:04:38.236Z,11.20
2018-09-08T05:07:06.347Z,11.20
2018-09-08T05:09:34.454Z,11.10
2018-09-08T05:12:02.802Z,11.00
2018-09-08T05:14:30.881Z,11.00
2018-09-08T05:16:59.061Z,11.10
2018-09-08T05:19:27.161Z,11.20
2018-09-08T05:21:55.236Z,11.50
2018-09-08T05:24:23.313Z,11.80
2018-09-08T05:26:51.437Z,11.90
2018-09-08T05:29:19.513Z,12.00
2018-09-08T05:31:47.589Z,12.10
2018-09-08T05:34:15.257Z,12.20
2018-09-08T05:36:43.356Z,12.40
2018-09-08T05:39:11.445Z,12.50
2018-09-08T05:41:39.532Z,12.60
2018-09-08T05:44:07.612Z,12.50
2018-09-08T05:46:35.710Z,12.50
2018-09-08T05:49:03.812Z,12.30
2018-09-08T05:51:32.057Z,12.20
2018-09-08T05:53:59.712Z,12.20
2018-09-08T05:56:27.821Z,12.20
2018-09-08T05:58:56.067Z,12.40
2018-09-08T06:01:24.130Z,12.30
2018-09-08T06:03:52.269Z,12.50
2018-09-08T06:06:20.389Z,12.60
2018-09-08T06:08:48.560Z,12.60
2018-09-08T06:11:16.636Z,12.60
2018-09-08T06:13:44.716Z,13.10
2018-09-08T06:16:12.879Z,13.70
2018-09-08T06:18:41.053Z,13.90
2018-09-08T06:21:09.117Z,14.20
2018-09-08T06:23:37.224Z,14.30
2018-09-08T06:26:05.328Z,14.10
2018-09-08T06:28:33.512Z,14.20
2018-09-08T06:31:01.619Z,14.30
2018-09-08T06:33:29.729Z,14.80
2018-09-08T06:35:57.777Z,15.10
2018-09-08T06:38:25.860Z,15.20
2018-09-08T06:40:53.956Z,15.20
2018-09-08T06:43:22.049Z,15.60
2018-09-08T06:45:50.127Z,15.90
2018-09-08T06:48:18.208Z,16.00
2018-09-08T06:50:46.297Z,16.40
2018-09-08T06:53:14.385Z,16.60
2018-09-08T06:55:42.008Z,16.60
2018-09-08T06:58:10.096Z,16.60
2018-09-08T07:00:38.184Z,16.80
2018-09-08T07:03:06.319Z,16.90
2018-09-08T07:05:34.420Z,17.20
2018-09-08T07:08:02.596Z,18.00
2018-09-08T07:10:30.736Z,19.00
2018-09-08T07:12:58.944Z,19.60
2018-09-08T07:15:27.119Z,20.40
2018-09-08T07:17:55.200Z,20.60
2018-09-08T07:20:23.505Z,21.40
2018-09-08T07:22:51.597Z,21.60
2018-09-08T07:25:19.228Z,21.70
2018-09-08T07:27:47.308Z,21.80
2018-09-08T07:30:15.448Z,22.10
2018-09-08T07:32:43.519Z,22.30
2018-09-08T07:35:11.605Z,22.50
2018-09-08T07:37:40.608Z,22.60
2018-09-08T07:40:08.712Z,22.40
2018-09-08T07:42:36.798Z,23.10
2018-09-08T07:45:04.884Z,23.70
2018-09-08T07:47:32.969Z,23.10
2018-09-08T07:50:01.151Z,22.90
2018-09-08T07:52:29.216Z,23.40
2018-09-08T07:54:58.380Z,23.60
2018-09-08T07:57:26.469Z,23.30
2018-09-08T07:59:54.565Z,23.40
2018-09-08T08:02:22.644Z,23.70
2018-09-08T08:04:50.748Z,23.00
2018-09-08T08:07:18.836Z,22.90
2018-09-08T08:09:47.059Z,22.80
2018-09-08T08:12:15.233Z,22.70
2018-09-08T08:14:43.304Z,22.60
2018-09-08T08:17:11.413Z,22.00
2018-09-08T08:19:39.551Z,22.10
2018-09-08T08:22:07.623Z,22.20
2018-09-08T08:24:35.693Z,23.10
2018-09-08T08:27:03.869Z,23.00
2018-09-08T08:29:31.953Z,23.50
2018-09-08T08:32:00.123Z,23.30
2018-09-08T08:34:28.193Z,23.20
2018-09-08T08:36:56.284Z,23.50
2018-09-08T08:39:24.384Z,23.80
2018-09-08T08:41:52.509Z,24.00
2018-09-08T08:44:20.685Z,22.80
2018-09-08T08:46:48.765Z,23.20
2018-09-08T08:49:16.881Z,23.30
2018-09-08T08:51:56.429Z,23.40
2018-09-08T08:54:31.805Z,23.90
2018-09-08T08:56:59.434Z,23.70
2018-09-08T08:59:27.547Z,23.00
2018-09-08T09:01:55.637Z,23.80
2018-09-08T09:04:23.732Z,23.70
2018-09-08T09:06:51.974Z,23.60
2018-09-08T09:09:20.044Z,23.80
2018-09-08T09:11:48.172Z,23.00
2018-09-08T09:14:16.252Z,23.30
2018-09-08T09:16:44.352Z,23.60
2018-09-08T09:19:40.131Z,22.90
2018-09-08T09:22:21.900Z,22.70
2018-09-08T09:24:54.521Z,22.20
2018-09-08T09:27:22.726Z,21.80
2018-09-08T09:29:50.785Z,21.60
2018-09-08T09:32:18.879Z,22.10
2018-09-08T09:34:46.977Z,22.70
2018-09-08T09:37:15.081Z,22.20
2018-09-08T09:39:43.304Z,22.20
2018-09-08T09:42:11.500Z,21.90
2018-09-08T09:44:39.643Z,22.10
2018-09-08T09:47:07.717Z,22.10
2018-09-08T09:49:35.810Z,23.20
2018-09-08T09:52:03.893Z,23.00
2018-09-08T09:54:31.516Z,23.40
2018-09-08T09:56:59.694Z,23.70
2018-09-08T09:59:27.767Z,23.40
2018-09-08T10:02:01.395Z,23.20
2018-09-08T10:04:29.496Z,23.40
2018-09-08T10:06:57.589Z,22.30
2018-09-08T10:09:25.685Z,21.70
2018-09-08T10:11:53.774Z,22.60
2018-09-08T10:14:21.848Z,22.70
2018-09-08T10:16:50.006Z,22.80
2018-09-08T10:19:18.096Z,22.50
2018-09-08T10:21:46.184Z,23.20
2018-09-08T10:24:14.341Z,23.70
2018-09-08T10:26:42.496Z,24.10
2018-09-08T10:29:10.674Z,23.40
2018-09-08T10:31:38.851Z,22.60
2018-09-08T10:34:06.915Z,22.00
2018-09-08T10:36:35.000Z,21.90
2018-09-08T10:39:03.164Z,22.10
2018-09-08T10:41:31.330Z,23.20
2018-09-08T10:43:59.507Z,22.10
2018-09-08T10:46:27.660Z,21.50
2018-09-08T10:48:55.866Z,22.20
2018-09-08T10:51:41.557Z,22.20
2018-09-08T10:54:09.701Z,21.60
2018-09-08T10:56:38.065Z,21.30
2018-09-08T10:59:06.181Z,21.10
2018-09-08T11:01:34.487Z,21.30
2018-09-08T11:04:02.485Z,21.70
2018-09-08T11:06:30.640Z,22.80
2018-09-08T11:08:58.794Z,23.10
2018-09-08T11:11:27.039Z,23.20
2018-09-08T11:13:55.301Z,22.20
2018-09-08T11:16:23.542Z,22.80
2018-09-08T11:18:51.689Z,23.10
2018-09-08T11:21:19.704Z,22.60
2018-09-08T11:23:47.815Z,22.70
2018-09-08T11:26:15.897Z,23.10
2018-09-08T11:28:43.976Z,21.50
2018-09-08T11:31:12.065Z,22.00
2018-09-08T11:33:40.209Z,22.80
2018-09-08T11:36:08.382Z,23.30
2018-09-08T11:38:36.571Z,22.90
2018-09-08T11:41:04.916Z,23.20
2018-09-08T11:43:33.081Z,23.30
2018-09-08T11:46:01.168Z,23.30
2018-09-08T11:48:29.258Z,23.10
2018-09-08T11:50:57.357Z,23.60
2018-09-08T11:53:25.449Z,23.40
2018-09-08T11:55:53.533Z,23.90
2018-09-08T11:58:22.358Z,23.80
2018-09-08T12:00:50.450Z,23.60
2018-09-08T12:03:18.542Z,23.60
2018-09-08T12:05:46.642Z,23.80
2018-09-08T12:08:14.860Z,23.90
2018-09-08T12:10:43.056Z,23.90
2018-09-08T12:13:11.108Z,23.60
2018-09-08T12:15:39.276Z,23.60
2018-09-08T12:18:07.493Z,22.80
2018-09-08T12:20:35.589Z,23.30
2018-09-08T12:23:03.703Z,23.30
2018-09-08T12:25:31.793Z,22.80
2018-09-08T12:27:59.876Z,22.50
2018-09-08T12:30:28.010Z,22.10
2018-09-08T12:32:56.065Z,22.30
2018-09-08T12:35:24.145Z,22.60
2018-09-08T12:37:52.227Z,22.20
2018-09-08T12:40:20.376Z,22.20
2018-09-08T12:42:48.465Z,22.00
2018-09-08T12:45:17.469Z,22.30
2018-09-08T12:47:45.574Z,22.60
2018-09-08T12:50:13.673Z,22.70
2018-09-08T12:52:41.770Z,22.80
2018-09-08T12:55:09.860Z,22.80
2018-09-08T12:57:37.940Z,22.50
2018-09-08T13:00:05.569Z,22.30
2018-09-08T13:02:33.709Z,22.60
2018-09-08T13:05:01.823Z,22.70
2018-09-08T13:07:29.910Z,22.60
2018-09-08T13:09:58.016Z,22.70
2018-09-08T13:12:26.141Z,22.60
2018-09-08T13:14:54.332Z,22.40
2018-09-08T13:17:22.427Z,21.70
2018-09-08T13:19:50.518Z,21.50
2018-09-08T13:22:18.605Z,21.30
2018-09-08T13:24:46.680Z,21.70
2018-09-08T13:27:14.793Z,22.00
2018-09-08T13:29:42.865Z,22.30
2018-09-08T13:32:10.947Z,22.50
2018-09-08T13:34:39.039Z,22.40
2018-09-08T13:37:07.114Z,22.80
2018-09-08T13:39:35.245Z,22.90
2018-09-08T13:42:03.292Z,23.00
2018-09-08T13:44:31.407Z,22.80
2018-09-08T13:47:00.120Z,22.90
2018-09-08T13:49:28.304Z,22.80
2018-09-08T13:51:56.397Z,22.90
2018-09-08T13:54:24.508Z,23.20
2018-09-08T13:56:52.597Z,23.20
2018-09-08T13:59:20.700Z,23.30
2018-09-08T14:01:48.816Z,23.20
2018-09-08T14:04:16.989Z,23.00
2018-09-08T14:06:44.992Z,23.10
2018-09-08T14:09:13.117Z,22.90
2018-09-08T14:11:41.229Z,22.50
2018-09-08T14:14:09.317Z,22.20
2018-09-08T14:16:37.405Z,22.00
2018-09-08T14:19:05.738Z,21.90
2018-09-08T14:21:33.917Z,22.00
2018-09-08T14:24:01.992Z,22.10
2018-09-08T14:26:30.079Z,22.40
2018-09-08T14:28:58.237Z,22.60
2018-09-08T14:31:26.419Z,22.70
2018-09-08T14:33:54.484Z,22.70
2018-09-08T14:36:22.577Z,22.50
2018-09-08T14:38:50.692Z,22.20
2018-09-08T14:41:18.769Z,22.20
2018-09-08T14:43:46.898Z,22.30
2018-09-08T14:46:15.048Z,22.20
2018-09-08T14:48:43.157Z,22.10
2018-09-08T14:51:11.279Z,22.00
2018-09-08T14:53:39.363Z,22.00
2018-09-08T14:56:07.693Z,22.10
2018-09-08T14:58:35.789Z,22.20
2018-09-08T15:01:03.921Z,22.10
2018-09-08T15:03:32.009Z,22.10
2018-09-08T15:06:00.309Z,22.10
2018-09-08T15:08:28.514Z,21.90
2018-09-08T15:10:56.568Z,22.00
2018-09-08T15:13:24.808Z,22.00
2018-09-08T15:15:52.985Z,22.00
2018-09-08T15:18:21.076Z,21.90
2018-09-08T15:20:49.169Z,21.80
2018-09-08T15:23:17.258Z,21.90
2018-09-08T15:25:45.349Z,21.90
2018-09-08T15:28:13.499Z,21.70
2018-09-08T15:30:41.564Z,21.60
2018-09-08T15:33:09.650Z,21.50
2018-09-08T15:35:37.738Z,21.60
2018-09-08T15:38:05.900Z,21.50
2018-09-08T15:40:33.989Z,21.50
2018-09-08T15:43:02.139Z,21.40
2018-09-08T15:45:30.318Z,21.30
2018-09-08T15:47:58.484Z,21.30
2018-09-08T15:50:26.601Z,21.30
2018-09-08T15:52:55.477Z,21.20
2018-09-08T15:55:23.564Z,21.10
2018-09-08T15:57:51.224Z,21.10
2018-09-08T16:00:19.332Z,21.00
2018-09-08T16:02:47.468Z,20.90
2018-09-08T16:05:15.568Z,20.80
2018-09-08T16:07:43.700Z,20.80
2018-09-08T16:10:11.789Z,20.70
2018-09-08T16:12:39.880Z,20.60
2018-09-08T16:15:08.007Z,20.50
2018-09-08T16:17:36.112Z,20.60
2018-09-08T16:20:04.233Z,20.60
2018-09-08T16:22:32.356Z,20.50
2018-09-08T16:25:00.461Z,20.50
2018-09-08T16:27:28.575Z,20.50
2018-09-08T16:29:56.659Z,20.50
2018-09-08T16:32:24.873Z,20.40
2018-09-08T16:34:52.979Z,20.40
2018-09-08T16:37:21.228Z,20.30
2018-09-08T16:39:49.399Z,20.20
2018-09-08T16:42:17.502Z,20.20
2018-09-08T16:44:45.574Z,20.10
2018-09-08T16:47:13.694Z,20.00
2018-09-08T16:49:41.793Z,20.00
2018-09-08T16:52:09.944Z,19.90
2018-09-08T16:54:47.875Z,19.70
2018-09-08T16:57:16.094Z,19.60
2018-09-08T16:59:51.400Z,19.50
2018-09-08T17:02:19.488Z,19.40
2018-09-08T17:04:47.579Z,19.30
2018-09-08T17:07:15.665Z,19.20
2018-09-08T17:09:43.752Z,19.20
2018-09-08T17:12:11.904Z,19.10
2018-09-08T17:14:39.991Z,19.00
2018-09-08T17:17:08.126Z,18.90
2018-09-08T17:19:36.195Z,18.90
2018-09-08T17:22:04.352Z,18.70
2018-09-08T17:24:32.546Z,18.70
2018-09-08T17:27:00.664Z,18.70
2018-09-08T17:29:28.748Z,18.60
2018-09-08T17:31:56.841Z,18.50
2018-09-08T17:34:25.885Z,18.50
2018-09-08T17:36:54.254Z,18.50
2018-09-08T17:39:22.336Z,18.40
2018-09-08T17:41:50.431Z,18.30
2018-09-08T17:44:18.504Z,18.30
2018-09-08T17:46:46.624Z,18.20
2018-09-08T17:49:14.720Z,18.10
2018-09-08T17:51:42.812Z,18.00
2018-09-08T17:54:10.900Z,18.00
2018-09-08T17:56:39.634Z,17.90
2018-09-08T17:59:07.707Z,17.80
2018-09-08T18:01:35.436Z,17.80
2018-09-08T18:04:03.530Z,17.70
2018-09-08T18:06:31.649Z,17.60
2018-09-08T18:08:59.737Z,17.50
2018-09-08T18:11:27.836Z,17.30
2018-09-08T18:13:55.941Z,17.20
2018-09-08T18:16:24.111Z,17.20
2018-09-08T18:18:52.191Z,17.10
2018-09-08T18:21:20.273Z,17.10
2018-09-08T18:23:49.316Z,17.10
2018-09-08T18:26:17.405Z,17.00
2018-09-08T18:28:45.632Z,16.90
2018-09-08T18:31:14.497Z,16.80
2018-09-08T18:33:43.749Z,16.70
2018-09-08T18:36:13.859Z,16.50
2018-09-08T18:38:41.938Z,16.40
2018-09-08T18:41:10.029Z,16.30
2018-09-08T18:43:38.134Z,16.30
2018-09-08T18:46:06.492Z,16.20
2018-09-08T18:48:34.673Z,16.30
2018-09-08T18:51:02.752Z,16.20
2018-09-08T18:53:30.920Z,16.10
2018-09-08T18:55:58.989Z,16.00
2018-09-08T18:58:26.638Z,15.90
2018-09-08T19:00:54.778Z,15.80
2018-09-08T19:03:22.804Z,15.70
2018-09-08T19:05:50.973Z,15.70
2018-09-08T19:08:19.048Z,15.70
2018-09-08T19:10:47.140Z,15.70
2018-09-08T19:13:15.229Z,15.70
2018-09-08T19:15:43.317Z,15.70
2018-09-08T19:18:11.399Z,15.60
2018-09-08T19:20:40.769Z,15.50
2018-09-08T19:23:08.863Z,15.50
2018-09-08T19:25:37.395Z,15.50
2018-09-08T19:28:05.697Z,15.50
2018-09-08T19:30:33.797Z,15.40
2018-09-08T19:33:01.899Z,15.40
2018-09-08T19:35:35.379Z,15.30
2018-09-08T19:38:03.500Z,15.30
2018-09-08T19:40:37.088Z,15.30
2018-09-08T19:43:05.280Z,15.30
2018-09-08T19:45:33.365Z,15.40
2018-09-08T19:48:04.378Z,15.50
2018-09-08T19:50:32.801Z,15.40
2018-09-08T19:53:06.358Z,15.30
2018-09-08T19:55:34.461Z,15.30
2018-09-08T19:58:07.691Z,15.30
2018-09-08T20:00:35.413Z,15.10
2018-09-08T20:03:03.514Z,15.10
2018-09-08T20:05:31.592Z,15.00
2018-09-08T20:07:59.692Z,15.10
2018-09-08T20:10:27.785Z,15.20
2018-09-08T20:12:55.924Z,15.20
2018-09-08T20:15:24.279Z,15.10
2018-09-08T20:17:52.320Z,15.00
2018-09-08T20:20:20.399Z,14.90
2018-09-08T20:22:48.556Z,14.90
2018-09-08T20:25:16.721Z,14.90
2018-09-08T20:27:44.837Z,15.00
2018-09-08T20:30:13.264Z,14.90
2018-09-08T20:32:41.337Z,14.80
2018-09-08T20:35:09.482Z,14.80
2018-09-08T20:37:37.512Z,14.60
2018-09-08T20:40:05.789Z,14.50
2018-09-08T20:42:33.872Z,14.50
2018-09-08T20:45:01.971Z,14.50
2018-09-08T20:47:30.052Z,14.60
2018-09-08T20:49:58.132Z,14.60
2018-09-08T20:52:26.240Z,14.60
2018-09-08T20:54:54.320Z,14.60
2018-09-08T20:57:22.400Z,14.50
2018-09-08T20:59:50.052Z,14.50
2018-09-08T21:02:18.156Z,14.50
2018-09-08T21:04:46.285Z,14.50
2018-09-08T21:07:14.465Z,14.60
2018-09-08T21:09:42.584Z,14.60
2018-09-08T21:12:10.668Z,14.50
2018-09-08T21:14:39.644Z,14.50
2018-09-08T21:17:08.192Z,14.50
2018-09-08T21:19:36.449Z,14.40
2018-09-08T21:22:04.508Z,14.40
2018-09-08T21:24:32.594Z,14.50
2018-09-08T21:27:00.680Z,14.50
2018-09-08T21:29:28.780Z,14.50
2018-09-08T21:31:56.868Z,14.40
2018-09-08T21:34:24.964Z,14.40
2018-09-08T21:36:53.065Z,14.30
2018-09-08T21:39:21.338Z,14.20
2018-09-08T21:41:49.411Z,14.30
2018-09-08T21:44:17.600Z,14.30
2018-09-08T21:46:45.680Z,14.30
2018-09-08T21:49:13.831Z,14.20
2018-09-08T21:51:42.006Z,14.10
2018-09-08T21:54:10.076Z,14.10
2018-09-08T21:56:38.160Z,14.00
2018-09-08T21:59:05.786Z,14.00
2018-09-08T22:01:33.984Z,13.90
2018-09-08T22:04:02.057Z,13.90
2018-09-08T22:06:30.135Z,13.90
2018-09-08T22:08:58.225Z,13.80
2018-09-08T22:11:26.374Z,13.60
2018-09-08T22:13:54.548Z,13.50
2018-09-08T22:16:22.624Z,13.40
2018-09-08T22:18:50.796Z,13.30
2018-09-08T22:21:18.866Z,13.30
2018-09-08T22:23:46.940Z,13.20
2018-09-08T22:26:15.048Z,13.20
2018-09-08T22:28:43.141Z,13.10
2018-09-08T22:31:11.236Z,13.00
2018-09-08T22:33:39.320Z,12.90
2018-09-08T22:36:07.415Z,12.90
2018-09-08T22:38:35.520Z,12.90
2018-09-08T22:41:03.601Z,12.90
2018-09-08T22:43:31.691Z,12.80
